sensor_id;sensor_type;location;lat;lon;timestamp;temperature;humidity
52211;DHT22;38179;52.756;6.906;2022-08-11T00:02:34;19.50;99.90
52211;DHT22;38179;52.756;6.906;2022-08-11T00:05:07;19.50;99.90
52211;DHT22;38179;52.756;6.906;2022-08-11T00:07:40;19.50;99.90
52211;DHT22;38179;52.756;6.906;2022-08-11T00:10:11;19.40;99.90
52211;DHT22;38179;52.756;6.906;2022-08-11T00:12:37;19.40;99.90
52211;DHT22;38179;52.756;6.906;2022-08-11T00:15:04;19.40;99.90
52211;DHT22;38179;52.756;6.906;2022-08-11T00:17:31;19.40;99.90
52211;DHT22;38179;52.756;6.906;2022-08-11T00:20:12;19.30;99.90
52211;DHT22;38179;52.756;6.906;2022-08-11T00:22:40;19.30;99.90
52211;DHT22;38179;52.756;6.906;2022-08-11T00:25:18;19.30;99.90
52211;DHT22;38179;52.756;6.906;2022-08-11T00:27:46;19.30;99.90
52211;DHT22;38179;52.756;6.906;2022-08-11T00:30:13;19.30;99.90
52211;DHT22;38179;52.756;6.906;2022-08-11T00:32:43;19.20;99.90
52211;DHT22;38179;52.756;6.906;2022-08-11T00:35:15;19.20;99.90
52211;DHT22;38179;52.756;6.906;2022-08-11T00:37:48;19.20;99.90
52211;DHT22;38179;52.756;6.906;2022-08-11T00:40:24;19.20;99.90
52211;DHT22;38179;52.756;6.906;2022-08-11T00:42:59;19.10;99.90
52211;DHT22;38179;52.756;6.906;2022-08-11T00:45:34;19.10;99.90
52211;DHT22;38179;52.756;6.906;2022-08-11T00:48:03;19.10;99.90
52211;DHT22;38179;52.756;6.906;2022-08-11T00:53:34;19.00;99.90
52211;DHT22;38179;52.756;6.906;2022-08-11T00:56:21;19.00;99.90
52211;DHT22;38179;52.756;6.906;2022-08-11T01:29:09;18.60;99.90
52211;DHT22;38179;52.756;6.906;2022-08-11T01:45:45;18.50;99.90
52211;DHT22;38179;52.756;6.906;2022-08-11T01:53:52;18.40;99.90
52211;DHT22;38179;52.756;6.906;2022-08-11T01:59:19;18.30;99.90
52211;DHT22;38179;52.756;6.906;2022-08-11T02:02:07;18.20;99.90
52211;DHT22;38179;52.756;6.906;2022-08-11T02:05:02;18.20;99.90
52211;DHT22;38179;52.756;6.906;2022-08-11T02:12:54;18.20;99.90
52211;DHT22;38179;52.756;6.906;2022-08-11T02:15:35;18.10;99.90
52211;DHT22;38179;52.756;6.906;2022-08-11T02:18:04;18.10;99.90
52211;DHT22;38179;52.756;6.906;2022-08-11T02:20:56;18.10;99.90
52211;DHT22;38179;52.756;6.906;2022-08-11T02:23:43;18.10;99.90
52211;DHT22;38179;52.756;6.906;2022-08-11T02:26:24;18.10;99.90
52211;DHT22;38179;52.756;6.906;2022-08-11T02:34:46;18.00;99.90
52211;DHT22;38179;52.756;6.906;2022-08-11T02:42:49;17.90;99.90
52211;DHT22;38179;52.756;6.906;2022-08-11T02:45:41;17.90;99.90
52211;DHT22;38179;52.756;6.906;2022-08-11T02:48:39;17.90;99.90
52211;DHT22;38179;52.756;6.906;2022-08-11T02:59:26;17.70;99.90
52211;DHT22;38179;52.756;6.906;2022-08-11T03:02:39;17.70;99.90
52211;DHT22;38179;52.756;6.906;2022-08-11T03:10:19;17.80;99.90
52211;DHT22;38179;52.756;6.906;2022-08-11T03:12:49;17.80;99.90
52211;DHT22;38179;52.756;6.906;2022-08-11T03:16:15;17.80;99.90
52211;DHT22;38179;52.756;6.906;2022-08-11T03:24:30;17.80;99.90
52211;DHT22;38179;52.756;6.906;2022-08-11T03:27:06;17.80;99.90
52211;DHT22;38179;52.756;6.906;2022-08-11T03:32:32;17.70;99.90
52211;DHT22;38179;52.756;6.906;2022-08-11T03:35:03;17.60;99.90
52211;DHT22;38179;52.756;6.906;2022-08-11T03:46:28;17.70;99.90
52211;DHT22;38179;52.756;6.906;2022-08-11T03:49:28;17.60;99.90
52211;DHT22;38179;52.756;6.906;2022-08-11T03:52:15;17.60;99.90
52211;DHT22;38179;52.756;6.906;2022-08-11T04:18:34;17.30;99.90
52211;DHT22;38179;52.756;6.906;2022-08-11T04:35:26;17.10;99.90
52211;DHT22;38179;52.756;6.906;2022-08-11T04:49:52;17.30;99.90
52211;DHT22;38179;52.756;6.906;2022-08-11T04:55:57;17.30;99.90
52211;DHT22;38179;52.756;6.906;2022-08-11T05:05:11;17.30;99.90
52211;DHT22;38179;52.756;6.906;2022-08-11T05:13:52;17.30;99.90
52211;DHT22;38179;52.756;6.906;2022-08-11T05:16:52;17.30;99.90
52211;DHT22;38179;52.756;6.906;2022-08-11T05:19:38;17.40;99.90
52211;DHT22;38179;52.756;6.906;2022-08-11T05:22:28;17.40;99.90
52211;DHT22;38179;52.756;6.906;2022-08-11T05:25:24;17.40;99.90
52211;DHT22;38179;52.756;6.906;2022-08-11T05:28:12;17.40;99.90
52211;DHT22;38179;52.756;6.906;2022-08-11T05:31:03;17.40;99.90
52211;DHT22;38179;52.756;6.906;2022-08-11T05:33:52;17.50;99.90
52211;DHT22;38179;52.756;6.906;2022-08-11T05:36:50;17.50;99.90
52211;DHT22;38179;52.756;6.906;2022-08-11T05:39:25;17.50;99.90
52211;DHT22;38179;52.756;6.906;2022-08-11T05:42:12;17.50;99.90
52211;DHT22;38179;52.756;6.906;2022-08-11T05:45:03;17.60;99.90
52211;DHT22;38179;52.756;6.906;2022-08-11T05:47:48;17.60;99.90
52211;DHT22;38179;52.756;6.906;2022-08-11T05:50:34;17.60;99.90
52211;DHT22;38179;52.756;6.906;2022-08-11T05:53:19;17.70;99.90
52211;DHT22;38179;52.756;6.906;2022-08-11T05:56:05;17.70;99.90
52211;DHT22;38179;52.756;6.906;2022-08-11T05:58:51;17.70;99.90
52211;DHT22;38179;52.756;6.906;2022-08-11T06:01:26;17.80;99.90
52211;DHT22;38179;52.756;6.906;2022-08-11T06:03:55;17.80;99.90
52211;DHT22;38179;52.756;6.906;2022-08-11T06:06:51;17.80;99.90
52211;DHT22;38179;52.756;6.906;2022-08-11T06:09:48;17.80;99.90
52211;DHT22;38179;52.756;6.906;2022-08-11T06:15:10;18.00;99.90
52211;DHT22;38179;52.756;6.906;2022-08-11T06:17:43;18.00;99.90
52211;DHT22;38179;52.756;6.906;2022-08-11T06:20:13;18.00;99.90
52211;DHT22;38179;52.756;6.906;2022-08-11T06:22:43;18.10;99.90
52211;DHT22;38179;52.756;6.906;2022-08-11T06:25:11;18.10;99.90
52211;DHT22;38179;52.756;6.906;2022-08-11T06:27:40;18.20;99.90
52211;DHT22;38179;52.756;6.906;2022-08-11T06:30:07;18.30;99.90
52211;DHT22;38179;52.756;6.906;2022-08-11T06:32:44;18.30;99.90
52211;DHT22;38179;52.756;6.906;2022-08-11T06:38:48;18.50;99.90
52211;DHT22;38179;52.756;6.906;2022-08-11T06:41:22;18.50;99.90
52211;DHT22;38179;52.756;6.906;2022-08-11T06:46:45;18.60;99.90
52211;DHT22;38179;52.756;6.906;2022-08-11T06:49:14;18.60;99.90
52211;DHT22;38179;52.756;6.906;2022-08-11T06:52:07;18.70;99.90
52211;DHT22;38179;52.756;6.906;2022-08-11T06:54:36;18.80;99.90
52211;DHT22;38179;52.756;6.906;2022-08-11T06:57:10;18.80;99.90
52211;DHT22;38179;52.756;6.906;2022-08-11T06:59:55;18.90;99.90
52211;DHT22;38179;52.756;6.906;2022-08-11T07:03:06;18.90;99.90
52211;DHT22;38179;52.756;6.906;2022-08-11T07:05:54;19.10;99.90
52211;DHT22;38179;52.756;6.906;2022-08-11T07:09:06;19.20;99.90
52211;DHT22;38179;52.756;6.906;2022-08-11T07:12:52;19.20;99.90
52211;DHT22;38179;52.756;6.906;2022-08-11T07:15:18;19.40;99.90
52211;DHT22;38179;52.756;6.906;2022-08-11T07:18:03;19.50;99.90
52211;DHT22;38179;52.756;6.906;2022-08-11T07:20:51;19.60;99.90
52211;DHT22;38179;52.756;6.906;2022-08-11T07:23:38;19.70;99.90
52211;DHT22;38179;52.756;6.906;2022-08-11T07:26:24;19.80;99.90
52211;DHT22;38179;52.756;6.906;2022-08-11T07:29:11;19.80;99.90
52211;DHT22;38179;52.756;6.906;2022-08-11T07:31:50;19.90;99.90
52211;DHT22;38179;52.756;6.906;2022-08-11T07:36:53;20.00;99.90
52211;DHT22;38179;52.756;6.906;2022-08-11T07:39:29;20.00;99.90
52211;DHT22;38179;52.756;6.906;2022-08-11T07:41:57;20.20;99.90
52211;DHT22;38179;52.756;6.906;2022-08-11T07:44:25;20.40;99.90
52211;DHT22;38179;52.756;6.906;2022-08-11T07:46:54;20.50;99.90
52211;DHT22;38179;52.756;6.906;2022-08-11T07:49:39;20.50;99.90
52211;DHT22;38179;52.756;6.906;2022-08-11T07:52:33;20.60;99.90
52211;DHT22;38179;52.756;6.906;2022-08-11T07:55:07;20.70;99.90
52211;DHT22;38179;52.756;6.906;2022-08-11T07:57:36;20.80;99.90
52211;DHT22;38179;52.756;6.906;2022-08-11T08:00:22;20.90;99.90
52211;DHT22;38179;52.756;6.906;2022-08-11T08:03:07;21.00;99.90
52211;DHT22;38179;52.756;6.906;2022-08-11T08:05:52;21.10;99.90
52211;DHT22;38179;52.756;6.906;2022-08-11T08:08:39;21.30;99.90
52211;DHT22;38179;52.756;6.906;2022-08-11T08:11:25;21.50;99.90
52211;DHT22;38179;52.756;6.906;2022-08-11T08:14:10;21.60;99.90
52211;DHT22;38179;52.756;6.906;2022-08-11T08:16:56;21.80;99.90
52211;DHT22;38179;52.756;6.906;2022-08-11T08:19:47;21.80;99.90
52211;DHT22;38179;52.756;6.906;2022-08-11T08:22:17;21.90;99.90
52211;DHT22;38179;52.756;6.906;2022-08-11T08:24:44;22.10;99.90
52211;DHT22;38179;52.756;6.906;2022-08-11T08:27:12;22.10;99.90
52211;DHT22;38179;52.756;6.906;2022-08-11T08:29:39;22.10;99.90
52211;DHT22;38179;52.756;6.906;2022-08-11T08:32:31;22.10;99.90
52211;DHT22;38179;52.756;6.906;2022-08-11T08:35:00;22.10;99.90
52211;DHT22;38179;52.756;6.906;2022-08-11T08:37:27;22.10;99.90
52211;DHT22;38179;52.756;6.906;2022-08-11T08:39:53;22.40;99.90
52211;DHT22;38179;52.756;6.906;2022-08-11T08:42:30;22.60;99.90
52211;DHT22;38179;52.756;6.906;2022-08-11T08:45:09;22.60;99.90
52211;DHT22;38179;52.756;6.906;2022-08-11T08:47:42;22.70;99.90
52211;DHT22;38179;52.756;6.906;2022-08-11T08:50:14;22.80;99.90
52211;DHT22;38179;52.756;6.906;2022-08-11T08:52:53;22.80;99.90
52211;DHT22;38179;52.756;6.906;2022-08-11T08:55:21;23.00;99.90
52211;DHT22;38179;52.756;6.906;2022-08-11T08:57:49;23.20;99.90
52211;DHT22;38179;52.756;6.906;2022-08-11T09:00:17;23.40;99.90
52211;DHT22;38179;52.756;6.906;2022-08-11T09:02:44;23.60;99.90
52211;DHT22;38179;52.756;6.906;2022-08-11T09:05:10;23.70;99.90
52211;DHT22;38179;52.756;6.906;2022-08-11T09:07:37;23.80;99.90
52211;DHT22;38179;52.756;6.906;2022-08-11T09:10:06;23.80;99.90
52211;DHT22;38179;52.756;6.906;2022-08-11T09:12:33;23.90;99.90
52211;DHT22;38179;52.756;6.906;2022-08-11T09:15:03;24.10;99.90
52211;DHT22;38179;52.756;6.906;2022-08-11T09:17:39;24.00;99.90
52211;DHT22;38179;52.756;6.906;2022-08-11T09:20:12;23.90;99.90
52211;DHT22;38179;52.756;6.906;2022-08-11T09:22:41;24.00;99.90
52211;DHT22;38179;52.756;6.906;2022-08-11T09:25:29;24.00;99.90
52211;DHT22;38179;52.756;6.906;2022-08-11T09:28:15;24.10;99.90
52211;DHT22;38179;52.756;6.906;2022-08-11T09:30:43;24.30;99.90
52211;DHT22;38179;52.756;6.906;2022-08-11T09:33:13;24.50;99.90
52211;DHT22;38179;52.756;6.906;2022-08-11T09:35:40;24.70;99.90
52211;DHT22;38179;52.756;6.906;2022-08-11T09:38:13;24.70;99.90
52211;DHT22;38179;52.756;6.906;2022-08-11T09:40:58;24.70;99.90
52211;DHT22;38179;52.756;6.906;2022-08-11T09:43:25;24.60;99.90
52211;DHT22;38179;52.756;6.906;2022-08-11T09:46:11;24.60;99.90
52211;DHT22;38179;52.756;6.906;2022-08-11T09:48:44;24.60;99.90
52211;DHT22;38179;52.756;6.906;2022-08-11T09:51:12;24.60;99.90
52211;DHT22;38179;52.756;6.906;2022-08-11T09:53:41;24.80;99.90
52211;DHT22;38179;52.756;6.906;2022-08-11T09:56:19;24.70;99.90
52211;DHT22;38179;52.756;6.906;2022-08-11T09:59:05;25.00;99.90
52211;DHT22;38179;52.756;6.906;2022-08-11T10:01:39;25.10;99.90
52211;DHT22;38179;52.756;6.906;2022-08-11T10:04:15;25.20;99.90
52211;DHT22;38179;52.756;6.906;2022-08-11T10:06:48;25.30;99.90
52211;DHT22;38179;52.756;6.906;2022-08-11T10:09:43;25.50;99.90
52211;DHT22;38179;52.756;6.906;2022-08-11T10:12:31;25.50;99.90
52211;DHT22;38179;52.756;6.906;2022-08-11T10:15:01;25.60;99.90
52211;DHT22;38179;52.756;6.906;2022-08-11T10:17:49;25.80;99.60
52211;DHT22;38179;52.756;6.906;2022-08-11T10:20:37;25.80;99.60
52211;DHT22;38179;52.756;6.906;2022-08-11T10:23:04;26.00;99.00
52211;DHT22;38179;52.756;6.906;2022-08-11T10:25:49;25.80;99.90
52211;DHT22;38179;52.756;6.906;2022-08-11T10:28:35;26.00;98.20
52211;DHT22;38179;52.756;6.906;2022-08-11T10:31:03;26.00;97.80
52211;DHT22;38179;52.756;6.906;2022-08-11T10:33:48;26.00;98.10
52211;DHT22;38179;52.756;6.906;2022-08-11T10:36:28;25.90;98.80
52211;DHT22;38179;52.756;6.906;2022-08-11T10:38:56;26.00;98.00
52211;DHT22;38179;52.756;6.906;2022-08-11T10:41:25;26.10;98.20
52211;DHT22;38179;52.756;6.906;2022-08-11T10:44:10;26.00;98.30
52211;DHT22;38179;52.756;6.906;2022-08-11T10:46:37;25.90;99.00
52211;DHT22;38179;52.756;6.906;2022-08-11T10:49:24;25.80;99.30
52211;DHT22;38179;52.756;6.906;2022-08-11T10:51:50;25.80;98.20
52211;DHT22;38179;52.756;6.906;2022-08-11T10:54:37;26.00;98.00
52211;DHT22;38179;52.756;6.906;2022-08-11T10:57:23;26.00;98.60
52211;DHT22;38179;52.756;6.906;2022-08-11T11:00:09;26.10;97.70
52211;DHT22;38179;52.756;6.906;2022-08-11T11:02:38;26.00;98.10
52211;DHT22;38179;52.756;6.906;2022-08-11T11:07:55;26.10;97.60
52211;DHT22;38179;52.756;6.906;2022-08-11T11:10:22;26.00;97.80
52211;DHT22;38179;52.756;6.906;2022-08-11T11:12:54;25.90;98.10
52211;DHT22;38179;52.756;6.906;2022-08-11T11:15:43;25.90;98.40
52211;DHT22;38179;52.756;6.906;2022-08-11T11:18:31;25.80;98.40
52211;DHT22;38179;52.756;6.906;2022-08-11T11:21:19;25.70;98.70
52211;DHT22;38179;52.756;6.906;2022-08-11T11:29:34;25.90;97.80
52211;DHT22;38179;52.756;6.906;2022-08-11T11:32:36;26.10;97.50
52211;DHT22;38179;52.756;6.906;2022-08-11T11:37:40;26.20;96.40
52211;DHT22;38179;52.756;6.906;2022-08-11T11:40:15;26.30;96.40
52211;DHT22;38179;52.756;6.906;2022-08-11T11:42:43;26.30;97.40
52211;DHT22;38179;52.756;6.906;2022-08-11T11:45:11;26.40;96.90
52211;DHT22;38179;52.756;6.906;2022-08-11T11:47:40;26.60;95.60
52211;DHT22;38179;52.756;6.906;2022-08-11T11:50:07;26.60;95.80
52211;DHT22;38179;52.756;6.906;2022-08-11T11:52:34;26.60;96.10
52211;DHT22;38179;52.756;6.906;2022-08-11T11:55:01;26.40;96.30
52211;DHT22;38179;52.756;6.906;2022-08-11T11:57:28;26.40;96.50
52211;DHT22;38179;52.756;6.906;2022-08-11T12:00:13;26.30;96.10
52211;DHT22;38179;52.756;6.906;2022-08-11T12:03:03;26.30;96.20
52211;DHT22;38179;52.756;6.906;2022-08-11T12:05:33;26.20;96.40
52211;DHT22;38179;52.756;6.906;2022-08-11T12:08:01;26.20;97.60
52211;DHT22;38179;52.756;6.906;2022-08-11T12:10:47;26.40;95.80
52211;DHT22;38179;52.756;6.906;2022-08-11T12:13:17;26.40;96.40
52211;DHT22;38179;52.756;6.906;2022-08-11T12:16:03;26.50;96.10
52211;DHT22;38179;52.756;6.906;2022-08-11T12:18:33;26.60;95.40
52211;DHT22;38179;52.756;6.906;2022-08-11T12:21:03;26.70;94.50
52211;DHT22;38179;52.756;6.906;2022-08-11T12:23:31;26.80;95.50
52211;DHT22;38179;52.756;6.906;2022-08-11T12:26:16;26.90;94.80
52211;DHT22;38179;52.756;6.906;2022-08-11T12:29:02;27.00;94.90
52211;DHT22;38179;52.756;6.906;2022-08-11T12:31:31;27.10;95.20
52211;DHT22;38179;52.756;6.906;2022-08-11T12:34:08;27.30;94.40
52211;DHT22;38179;52.756;6.906;2022-08-11T12:36:42;27.30;93.70
52211;DHT22;38179;52.756;6.906;2022-08-11T12:39:11;27.50;92.90
52211;DHT22;38179;52.756;6.906;2022-08-11T12:41:39;27.50;92.90
52211;DHT22;38179;52.756;6.906;2022-08-11T12:44:27;27.60;92.70
52211;DHT22;38179;52.756;6.906;2022-08-11T12:47:18;27.70;91.80
52211;DHT22;38179;52.756;6.906;2022-08-11T12:49:47;27.80;91.40
52211;DHT22;38179;52.756;6.906;2022-08-11T12:52:36;27.80;91.80
52211;DHT22;38179;52.756;6.906;2022-08-11T12:55:14;27.60;92.10
52211;DHT22;38179;52.756;6.906;2022-08-11T12:58:05;27.50;92.50
52211;DHT22;38179;52.756;6.906;2022-08-11T13:00:43;27.40;92.10
52211;DHT22;38179;52.756;6.906;2022-08-11T13:03:28;27.30;91.80
52211;DHT22;38179;52.756;6.906;2022-08-11T13:06:14;27.30;92.30
52211;DHT22;38179;52.756;6.906;2022-08-11T13:08:41;27.30;91.40
52211;DHT22;38179;52.756;6.906;2022-08-11T13:11:09;27.30;91.80
52211;DHT22;38179;52.756;6.906;2022-08-11T13:13:54;27.30;92.10
52211;DHT22;38179;52.756;6.906;2022-08-11T13:16:28;27.40;92.50
52211;DHT22;38179;52.756;6.906;2022-08-11T13:18:57;27.80;90.70
52211;DHT22;38179;52.756;6.906;2022-08-11T13:21:26;28.00;90.40
52211;DHT22;38179;52.756;6.906;2022-08-11T13:23:53;28.20;89.60
52211;DHT22;38179;52.756;6.906;2022-08-11T13:26:24;28.30;89.50
52211;DHT22;38179;52.756;6.906;2022-08-11T13:28:50;28.40;89.10
52211;DHT22;38179;52.756;6.906;2022-08-11T13:31:19;28.50;87.60
52211;DHT22;38179;52.756;6.906;2022-08-11T13:33:48;28.50;89.70
52211;DHT22;38179;52.756;6.906;2022-08-11T13:36:21;28.60;87.50
52211;DHT22;38179;52.756;6.906;2022-08-11T13:38:53;28.80;85.70
52211;DHT22;38179;52.756;6.906;2022-08-11T13:41:20;28.80;86.50
52211;DHT22;38179;52.756;6.906;2022-08-11T13:44:12;28.80;89.00
52211;DHT22;38179;52.756;6.906;2022-08-11T13:46:39;28.90;89.70
52211;DHT22;38179;52.756;6.906;2022-08-11T13:49:06;29.00;87.80
52211;DHT22;38179;52.756;6.906;2022-08-11T13:51:37;29.00;86.60
52211;DHT22;38179;52.756;6.906;2022-08-11T13:54:10;29.00;85.30
52211;DHT22;38179;52.756;6.906;2022-08-11T13:56:38;29.00;88.30
52211;DHT22;38179;52.756;6.906;2022-08-11T13:59:07;29.20;87.00
52211;DHT22;38179;52.756;6.906;2022-08-11T14:01:37;29.30;85.60
52211;DHT22;38179;52.756;6.906;2022-08-11T14:04:20;29.30;85.30
52211;DHT22;38179;52.756;6.906;2022-08-11T14:06:52;29.30;85.00
52211;DHT22;38179;52.756;6.906;2022-08-11T14:09:31;29.40;85.60
52211;DHT22;38179;52.756;6.906;2022-08-11T14:12:00;29.50;83.30
52211;DHT22;38179;52.756;6.906;2022-08-11T14:14:50;29.50;82.60
52211;DHT22;38179;52.756;6.906;2022-08-11T14:17:19;29.60;81.80
52211;DHT22;38179;52.756;6.906;2022-08-11T14:19:50;29.70;81.10
52211;DHT22;38179;52.756;6.906;2022-08-11T14:22:18;29.80;83.10
52211;DHT22;38179;52.756;6.906;2022-08-11T14:24:46;29.80;83.70
52211;DHT22;38179;52.756;6.906;2022-08-11T14:27:16;29.90;84.00
52211;DHT22;38179;52.756;6.906;2022-08-11T14:29:42;30.00;83.90
52211;DHT22;38179;52.756;6.906;2022-08-11T14:32:11;30.10;82.50
52211;DHT22;38179;52.756;6.906;2022-08-11T14:34:40;30.30;79.80
52211;DHT22;38179;52.756;6.906;2022-08-11T14:37:10;30.30;80.70
52211;DHT22;38179;52.756;6.906;2022-08-11T14:39:44;30.30;82.00
52211;DHT22;38179;52.756;6.906;2022-08-11T14:42:15;30.30;82.90
52211;DHT22;38179;52.756;6.906;2022-08-11T14:45:06;30.20;80.50
52211;DHT22;38179;52.756;6.906;2022-08-11T14:47:53;30.10;80.70
52211;DHT22;38179;52.756;6.906;2022-08-11T14:50:24;30.20;81.50
52211;DHT22;38179;52.756;6.906;2022-08-11T14:52:57;30.30;80.60
52211;DHT22;38179;52.756;6.906;2022-08-11T14:55:25;30.30;79.90
52211;DHT22;38179;52.756;6.906;2022-08-11T14:58:14;30.40;80.70
52211;DHT22;38179;52.756;6.906;2022-08-11T15:00:41;30.50;78.20
52211;DHT22;38179;52.756;6.906;2022-08-11T15:03:10;30.50;78.80
52211;DHT22;38179;52.756;6.906;2022-08-11T15:05:55;30.50;78.80
52211;DHT22;38179;52.756;6.906;2022-08-11T15:08:22;30.60;79.70
52211;DHT22;38179;52.756;6.906;2022-08-11T15:11:09;30.70;79.20
52211;DHT22;38179;52.756;6.906;2022-08-11T15:14:01;30.80;78.60
52211;DHT22;38179;52.756;6.906;2022-08-11T15:16:28;30.80;78.70
52211;DHT22;38179;52.756;6.906;2022-08-11T15:19:14;30.80;77.70
52211;DHT22;38179;52.756;6.906;2022-08-11T15:21:40;30.90;77.20
52211;DHT22;38179;52.756;6.906;2022-08-11T15:24:25;30.90;76.10
52211;DHT22;38179;52.756;6.906;2022-08-11T15:26:51;31.00;77.00
52211;DHT22;38179;52.756;6.906;2022-08-11T15:29:38;31.00;77.90
52211;DHT22;38179;52.756;6.906;2022-08-11T15:32:24;31.00;77.50
52211;DHT22;38179;52.756;6.906;2022-08-11T15:35:10;31.00;77.00
52211;DHT22;38179;52.756;6.906;2022-08-11T15:37:57;30.90;77.20
52211;DHT22;38179;52.756;6.906;2022-08-11T15:40:37;31.10;78.50
52211;DHT22;38179;52.756;6.906;2022-08-11T15:43:27;31.10;79.60
52211;DHT22;38179;52.756;6.906;2022-08-11T15:46:32;31.10;79.50
52211;DHT22;38179;52.756;6.906;2022-08-11T15:49:08;31.10;78.70
52211;DHT22;38179;52.756;6.906;2022-08-11T15:51:41;31.20;78.30
52211;DHT22;38179;52.756;6.906;2022-08-11T15:54:10;31.20;76.30
52211;DHT22;38179;52.756;6.906;2022-08-11T15:56:40;31.10;77.20
52211;DHT22;38179;52.756;6.906;2022-08-11T15:59:07;31.20;77.40
52211;DHT22;38179;52.756;6.906;2022-08-11T16:01:53;31.20;76.90
52211;DHT22;38179;52.756;6.906;2022-08-11T16:04:57;31.30;78.40
52211;DHT22;38179;52.756;6.906;2022-08-11T16:07:29;31.40;78.40
52211;DHT22;38179;52.756;6.906;2022-08-11T16:13:22;31.40;77.60
52211;DHT22;38179;52.756;6.906;2022-08-11T16:15:39;31.30;78.50
52211;DHT22;38179;52.756;6.906;2022-08-11T16:18:29;31.30;77.50
52211;DHT22;38179;52.756;6.906;2022-08-11T16:21:15;31.20;76.50
52211;DHT22;38179;52.756;6.906;2022-08-11T16:23:43;31.20;77.40
52211;DHT22;38179;52.756;6.906;2022-08-11T16:26:13;31.20;77.00
52211;DHT22;38179;52.756;6.906;2022-08-11T16:28:41;31.30;78.00
52211;DHT22;38179;52.756;6.906;2022-08-11T16:31:08;31.30;77.80
52211;DHT22;38179;52.756;6.906;2022-08-11T16:33:37;31.20;77.60
52211;DHT22;38179;52.756;6.906;2022-08-11T16:36:07;31.20;78.00
52211;DHT22;38179;52.756;6.906;2022-08-11T16:38:53;31.20;77.80
52211;DHT22;38179;52.756;6.906;2022-08-11T16:41:22;31.20;77.50
52211;DHT22;38179;52.756;6.906;2022-08-11T16:44:09;31.20;78.70
52211;DHT22;38179;52.756;6.906;2022-08-11T16:46:54;31.20;78.10
52211;DHT22;38179;52.756;6.906;2022-08-11T16:49:35;31.10;77.50
52211;DHT22;38179;52.756;6.906;2022-08-11T16:52:05;31.00;77.60
52211;DHT22;38179;52.756;6.906;2022-08-11T16:54:36;30.90;77.00
52211;DHT22;38179;52.756;6.906;2022-08-11T16:57:09;30.90;77.90
52211;DHT22;38179;52.756;6.906;2022-08-11T16:59:57;30.90;77.60
52211;DHT22;38179;52.756;6.906;2022-08-11T17:02:29;30.70;77.20
52211;DHT22;38179;52.756;6.906;2022-08-11T17:05:18;30.60;77.20
52211;DHT22;38179;52.756;6.906;2022-08-11T17:08:06;30.40;77.00
52211;DHT22;38179;52.756;6.906;2022-08-11T17:11:02;30.20;77.60
52211;DHT22;38179;52.756;6.906;2022-08-11T17:14:00;30.10;78.00
52211;DHT22;38179;52.756;6.906;2022-08-11T17:16:33;29.90;78.40
52211;DHT22;38179;52.756;6.906;2022-08-11T17:19:01;29.70;78.40
52211;DHT22;38179;52.756;6.906;2022-08-11T17:21:35;29.60;77.80
52211;DHT22;38179;52.756;6.906;2022-08-11T17:24:22;29.40;78.20
52211;DHT22;38179;52.756;6.906;2022-08-11T17:26:53;29.20;78.80
52211;DHT22;38179;52.756;6.906;2022-08-11T17:31:53;29.10;78.90
52211;DHT22;38179;52.756;6.906;2022-08-11T17:34:41;29.00;79.10
52211;DHT22;38179;52.756;6.906;2022-08-11T17:37:28;29.00;79.80
52211;DHT22;38179;52.756;6.906;2022-08-11T17:39:57;28.80;80.20
52211;DHT22;38179;52.756;6.906;2022-08-11T17:42:27;28.80;80.10
52211;DHT22;38179;52.756;6.906;2022-08-11T17:45:13;28.70;79.30
52211;DHT22;38179;52.756;6.906;2022-08-11T17:47:59;28.70;79.50
52211;DHT22;38179;52.756;6.906;2022-08-11T17:50:45;28.60;78.80
52211;DHT22;38179;52.756;6.906;2022-08-11T17:53:13;28.50;78.80
52211;DHT22;38179;52.756;6.906;2022-08-11T17:56:00;28.50;79.10
52211;DHT22;38179;52.756;6.906;2022-08-11T17:58:46;28.40;79.50
52211;DHT22;38179;52.756;6.906;2022-08-11T18:01:32;28.30;79.40
52211;DHT22;38179;52.756;6.906;2022-08-11T18:04:04;28.20;79.90
52211;DHT22;38179;52.756;6.906;2022-08-11T18:06:31;28.10;80.10
52211;DHT22;38179;52.756;6.906;2022-08-11T18:08:58;28.10;80.60
52211;DHT22;38179;52.756;6.906;2022-08-11T18:11:45;28.00;80.60
52211;DHT22;38179;52.756;6.906;2022-08-11T18:14:32;27.90;81.10
52211;DHT22;38179;52.756;6.906;2022-08-11T18:17:17;27.80;81.00
52211;DHT22;38179;52.756;6.906;2022-08-11T18:20:02;27.80;80.90
52211;DHT22;38179;52.756;6.906;2022-08-11T18:22:47;27.70;81.40
52211;DHT22;38179;52.756;6.906;2022-08-11T18:25:37;27.60;81.60
52211;DHT22;38179;52.756;6.906;2022-08-11T18:28:28;27.50;81.30
52211;DHT22;38179;52.756;6.906;2022-08-11T18:31:14;27.40;81.70
52211;DHT22;38179;52.756;6.906;2022-08-11T18:34:05;27.40;81.50
52211;DHT22;38179;52.756;6.906;2022-08-11T18:37:06;27.30;82.00
52211;DHT22;38179;52.756;6.906;2022-08-11T18:39:57;27.20;83.00
52211;DHT22;38179;52.756;6.906;2022-08-11T18:42:46;27.10;83.30
52211;DHT22;38179;52.756;6.906;2022-08-11T18:45:31;27.00;84.40
52211;DHT22;38179;52.756;6.906;2022-08-11T18:48:21;26.90;84.80
52211;DHT22;38179;52.756;6.906;2022-08-11T18:51:08;26.90;86.40
52211;DHT22;38179;52.756;6.906;2022-08-11T18:53:59;26.80;86.60
52211;DHT22;38179;52.756;6.906;2022-08-11T18:56:45;26.70;87.20
52211;DHT22;38179;52.756;6.906;2022-08-11T18:59:35;26.60;87.70
52211;DHT22;38179;52.756;6.906;2022-08-11T19:02:23;26.60;89.10
52211;DHT22;38179;52.756;6.906;2022-08-11T19:05:09;26.50;88.90
52211;DHT22;38179;52.756;6.906;2022-08-11T19:07:56;26.50;89.30
52211;DHT22;38179;52.756;6.906;2022-08-11T19:10:45;26.40;89.50
52211;DHT22;38179;52.756;6.906;2022-08-11T19:13:32;26.40;90.00
52211;DHT22;38179;52.756;6.906;2022-08-11T19:16:19;26.40;90.10
52211;DHT22;38179;52.756;6.906;2022-08-11T19:19:06;26.40;90.40
52211;DHT22;38179;52.756;6.906;2022-08-11T19:21:52;26.30;90.50
52211;DHT22;38179;52.756;6.906;2022-08-11T19:24:38;26.40;90.70
52211;DHT22;38179;52.756;6.906;2022-08-11T19:27:25;26.40;90.70
52211;DHT22;38179;52.756;6.906;2022-08-11T19:30:11;26.30;90.80
52211;DHT22;38179;52.756;6.906;2022-08-11T19:32:56;26.20;91.00
52211;DHT22;38179;52.756;6.906;2022-08-11T19:35:42;26.10;91.00
52211;DHT22;38179;52.756;6.906;2022-08-11T19:38:29;26.00;91.20
52211;DHT22;38179;52.756;6.906;2022-08-11T19:41:14;25.80;91.40
52211;DHT22;38179;52.756;6.906;2022-08-11T19:44:00;25.80;91.70
52211;DHT22;38179;52.756;6.906;2022-08-11T19:46:46;25.70;91.90
52211;DHT22;38179;52.756;6.906;2022-08-11T19:49:31;25.60;91.90
52211;DHT22;38179;52.756;6.906;2022-08-11T19:52:16;25.50;92.10
52211;DHT22;38179;52.756;6.906;2022-08-11T19:55:02;25.50;92.30
52211;DHT22;38179;52.756;6.906;2022-08-11T19:57:48;25.40;92.40
52211;DHT22;38179;52.756;6.906;2022-08-11T20:00:33;25.40;92.40